DOBRODOŠLI DO Fly Ecuador Virtual

Fly Ecuador Virtual es una organización creada con el fin de brindar una plataforma que permita a los pilotos virtuales, principalmente ecuatorianos, tener un lugar donde registrar sus horas de vuelo, sus certificados de conocimiento adquiridos, las rutas que han volado y los destinos que han visitado. Así mismo, se busca ayudar a todos los pilotos a expandir su conocimiento sobre el mundo de la aviación real y virtual por medio de publicaciones, foros y cursos en línea.

A diferencia de las aerolíneas virtuales tradicionales, Fly Ecuador Virtual no simula las operaciones de una aerolínea del mundo real en específico. Un miembro de Fly Ecuador Virtual tiene toda la libertad de volar cualquier aeronave que opere en el espacio aéreo ecuatoriano real, en cualquier ruta, sea esta nacional o internacional, IFR o VFR, aeronaves monomotor, multimotor o helicópteros. Todo esto con el objetivo de expandir las operaciones virtuales dentro del espacio aéreo ecuatoriano, creando una comunidad en la que se compartan conocimientos y experiencias que beneficien a todos sus integrantes.

El crecimiento de Fly Ecuador Virtual depende de la participación conjunta de todos sus miembros, por este motivo se incentiva la participación en línea a través de los diferentes medios descritos más adelante en este sitio web.

 STATISTIKA

Piloti 77
Vazduhoplova u floti 0
Ruta 0
Ukupno sati: 10511.12
Letova ukupno 1674
Broj redovnih linija 0
Broj letova Charter 1721
% Redovne linije 0.00 %

 POSLEDNJI LETOVI

NadimakPilotOdlazakDolazakDatumVreme leta
ECU070Luis Jaramillo  SKCL  SEGU 2018-09-16 1.24
ECU024Arturo Carvajal  SEGU  SEQM 2018-09-16 0.54
ECU024Arturo Carvajal  SEMC  SEQM 2018-09-09 0.47
ECU070Luis Jaramillo  SEQM  SKCL 2018-09-06 0.85
ECU024Arturo Carvajal  SEMC  SEQM 2018-09-03 0.48

 OD SKORO SA NAMA

 Consultar METAR

METAR
SEGU - José Joaquín de Olmedo International Airport, Guayaquil, ECU
Distance from station: N 0mi, 0km
Updated: Tue, 25-Sep-2018 8:00pm PDT
NOT Current
Clear
Clear
 Wind from SW
Wind: SW 17 mph , 28 km/h
Temperature: 75°F , 24°C
Dew Point: 66°F , 19°C
Humidity: 74%
Barometer: 29.85 inHg , 1011 hPa
Summary: Clear
Visibility: greater than 7 miles , 10 km
2018/09/26 03:00 SEGU 260300Z 22015KT CAVOK 24/19 Q1011 NOSIG RMK A2985
 
SEQM - Aeropuerto Internacional Mariscal Sucre, ECU
Distance from station: NE 120mi, 200km
Updated: Tue, 25-Sep-2018 8:00pm PDT
NOT Current
Patches of fog, Partly cloudy
Patches of fog, Partly cloudy
 Wind from NE
Wind: NE 5 mph , 7 km/h
Temperature: 55°F , 13°C
Dew Point: 54°F , 12°C
Humidity: 94%
Barometer: 30.3 inHg , 1026 hPa
Summary: Patches of Fog
Clouds: Partly Cloudy
Visibility: 5 miles , 8 km
Cloud details: Partly Cloudy 300 ft
2018/09/26 03:00 SEQM 260300Z 05004KT 020V100 8000 BCFG SCT003 13/12 Q1026 BECMG AT0330 6000 RMK A3030
 
SECU - Mariscal Lamar Airpor, ECU
Distance from station: ENE 80mi, 120km
Updated: Tue, 25-Sep-2018 8:00pm PDT
NOT Current

 Wind from NNE
Wind: NNE 5 mph , 7 km/h
2018/09/26 03:00 SECU 260300Z AUTO 03004KT ////NDV NCD 14/08 Q1026
 
SELT - Cotopaxi International Airport, ECU
Distance from station: NW 21mi, 34km
Updated: Tue, 25-Sep-2018 8:00pm PDT
NOT Current
Mostly Cloudy
Mostly Cloudy
 Wind from S
Wind: S 12 mph , 19 km/h
Temperature: 54°F , 12°C
Dew Point: 48°F , 9°C
Humidity: 82%
Barometer: 30.42 inHg , 1030 hPa
Clouds: Mostly Cloudy
Visibility: 6 miles , 10 km
Cloud details: Mostly Cloudy 3000 ft
2018/09/26 03:00 SELT 260300Z 19010KT 9999 BKN030 12/09 Q1030
 
SEMT - Eloy Alfaro International Airport, ECU
Distance from station: SSE 70mi, 100km
Updated: Tue, 25-Sep-2018 8:00pm PDT
NOT Current
Mostly Cloudy
Mostly Cloudy
 Wind from WSW
Wind: WSW 12 mph , 19 km/h
Temperature: 72°F , 22°C
Dew Point: 68°F , 20°C
Humidity: 88%
Barometer: 29.88 inHg , 1012 hPa
Clouds: Mostly Cloudy
Visibility: 6 miles , 10 km
Cloud details: Mostly Cloudy 1600 ft
2018/09/26 03:00 SEMT 260300Z 24010KT 9999 BKN016 22/20 Q1012 RMK A2990

Metar display script from Saratoga-Weather.org

 NOTAMS

NOTAMDatum



Fly Ecuador Virtual 2018 | System by VAM